Time;durP1;ratioP1;P1;durP2;ratioP2;P2;SDS_P1;SDS_P2;PMS_P1;PMS_P2;Temp;Humidity;BMP_temperature;BMP_pressure;BME280_temperature;BME280_humidity;BME280_pressure;Samples;Min_cycle;Max_cycle;Signal;HPM_P1;HPM_P2
2021/08/10 00:00:24;;;;;;;4.65;2.08;;;;;;;18.04;80.18;99954.72;5093324;28;20324;-68
2021/08/10 00:02:54;;;;;;;3.60;2.40;;;;;;;18.07;80.49;99964.94;5093348;28;20052;-68
2021/08/10 00:05:24;;;;;;;5.28;2.47;;;;;;;18.14;80.45;99956.13;5093673;28;20055;-68
2021/08/10 00:07:54;;;;;;;5.18;2.05;;;;;;;18.28;80.01;99953.19;5093261;28;20064;-68
2021/08/10 00:10:23;;;;;;;4.97;2.20;;;;;;;18.34;79.75;99947.84;5095427;28;20079;-68
2021/08/10 00:12:52;;;;;;;;;;;;;;;18.27;79.50;99951.50;5097865;28;20055;-68
2021/08/10 00:15:25;;;;;;;6.05;2.10;;;;;;;18.23;79.39;99945.59;5097162;28;19978;-68
2021/08/10 00:17:54;;;;;;;3.70;2.00;;;;;;;18.37;79.30;99946.03;5097676;28;20067;-68
2021/08/10 00:20:24;;;;;;;3.90;2.10;;;;;;;18.32;79.10;99955.66;5096920;28;20043;-68
2021/08/10 00:22:53;;;;;;;6.15;2.42;;;;;;;18.20;78.83;99956.00;5097237;28;20119;-68
2021/08/10 00:25:23;;;;;;;5.97;2.38;;;;;;;18.24;79.26;99961.91;5096931;28;20122;-68
2021/08/10 00:27:52;;;;;;;;;;;;;;;18.23;79.30;99968.84;5079069;28;20048;-68
2021/08/10 00:30:21;;;;;;;2.83;1.70;;;;;;;18.22;79.34;99969.72;5078579;28;19927;-68
2021/08/10 00:32:52;;;;;;;;;;;;;;;18.23;79.65;99971.41;5079144;28;20052;-68
2021/08/10 00:35:22;;;;;;;4.07;2.40;;;;;;;18.22;79.77;99974.03;5079013;28;19920;-68
2021/08/10 00:37:51;;;;;;;;;;;;;;;18.17;79.92;99981.91;5062247;28;20052;-68
2021/08/10 00:40:21;;;;;;;3.63;2.30;;;;;;;18.21;80.23;99993.84;5096596;28;19927;-68
2021/08/10 00:42:50;;;;;;;4.78;2.53;;;;;;;18.27;80.31;99987.66;5097172;28;20300;-68
2021/08/10 00:45:21;;;;;;;4.63;2.45;;;;;;;18.34;80.48;99994.38;5061815;28;20052;-68
2021/08/10 00:47:50;;;;;;;4.15;2.45;;;;;;;18.46;80.10;99984.59;5096712;28;20040;-68
2021/08/10 00:50:23;;;;;;;4.25;2.22;;;;;;;18.44;79.95;99986.34;5061575;28;20059;-68
2021/08/10 00:52:53;;;;;;;3.15;2.10;;;;;;;18.56;79.83;99985.16;5096725;28;20436;-68
2021/08/10 00:55:25;;;;;;;3.95;2.28;;;;;;;18.50;79.58;99975.03;5096645;28;20566;-68
2021/08/10 00:57:55;;;;;;;3.55;2.15;;;;;;;18.43;79.67;99974.28;5078583;28;20504;-68
2021/08/10 01:00:25;;;;;;;3.83;2.10;;;;;;;18.37;79.73;99971.88;5078373;28;20052;-68
2021/08/10 01:02:54;;;;;;;;;;;;;;;18.28;79.90;99969.56;5078810;28;20032;-68
2021/08/10 01:05:31;;;;;;;4.68;2.50;;;;;;;18.38;80.18;99964.97;5078426;28;19948;-68
2021/08/10 01:08:10;;;;;;;5.70;2.65;;;;;;;18.55;79.91;99963.63;5078084;28;20056;-68
2021/08/10 01:10:48;;;;;;;7.70;2.92;;;;;;;18.64;79.52;99968.53;5061603;28;20132;-69
2021/08/10 01:13:24;;;;;;;4.80;2.28;;;;;;;18.73;79.39;99972.59;5056397;28;20053;-68
2021/08/10 01:16:00;;;;;;;6.80;2.70;;;;;;;18.79;79.18;99961.25;5055672;28;20542;-68
2021/08/10 01:18:36;;;;;;;6.60;2.63;;;;;;;18.86;78.98;99965.34;5055678;28;20053;-68
2021/08/10 01:21:18;;;;;;;4.45;2.55;;;;;;;18.90;78.73;99951.41;5055414;28;20461;-68
2021/08/10 01:24:04;;;;;;;5.15;2.40;;;;;;;18.93;78.64;99939.22;5054412;28;20501;-69
2021/08/10 01:26:54;;;;;;;5.25;2.42;;;;;;;18.91;78.50;99935.84;5055874;28;20562;-68
2021/08/10 01:29:32;;;;;;;7.78;2.95;;;;;;;18.84;78.55;99933.47;5037677;28;20441;-69
2021/08/10 01:32:04;;;;;;;6.78;3.80;;;;;;;18.89;78.74;99929.88;5055342;28;20499;-68
2021/08/10 01:34:38;;;;;;;7.25;3.95;;;;;;;18.91;78.76;99925.50;5054527;28;20084;-69
2021/08/10 01:37:23;;;;;;;6.80;3.30;;;;;;;18.94;78.82;99935.75;5054200;28;20048;-69
2021/08/10 01:39:57;;;;;;;5.57;3.97;;;;;;;18.91;78.77;99935.84;5054095;28;20060;-68
2021/08/10 01:42:35;;;;;;;8.25;3.70;;;;;;;18.87;79.05;99942.00;5053979;28;20049;-69
2021/08/10 01:45:05;;;;;;;4.25;2.50;;;;;;;18.88;79.00;99945.44;5055520;28;20505;-68
2021/08/10 01:47:38;;;;;;;4.82;2.45;;;;;;;18.88;79.11;99940.28;5055716;28;20398;-68
2021/08/10 01:50:11;;;;;;;4.45;2.83;;;;;;;18.85;79.00;99959.31;5054168;28;20037;-68
2021/08/10 01:52:49;;;;;;;6.78;3.03;;;;;;;18.83;78.91;99955.06;5053959;28;20058;-69
2021/08/10 01:55:20;;;;;;;5.40;2.40;;;;;;;18.82;78.79;99948.19;5053756;28;20072;-68
2021/08/10 01:57:51;;;;;;;6.15;2.75;;;;;;;18.85;78.93;99953.28;5054091;28;20091;-69
2021/08/10 02:00:21;;;;;;;5.78;2.65;;;;;;;18.82;78.90;99966.31;5053751;28;20417;-69
2021/08/10 02:03:00;;;;;;;5.97;2.83;;;;;;;18.76;78.61;99962.19;5053542;28;20128;-68
2021/08/10 02:05:41;;;;;;;5.88;2.63;;;;;;;18.70;78.46;99955.44;5053894;28;20099;-68
2021/08/10 02:08:16;;;;;;;5.97;2.17;;;;;;;18.69;78.91;99950.31;5054688;28;20054;-68
2021/08/10 02:10:46;;;;;;;3.85;2.05;;;;;;;18.68;78.48;99943.44;5053342;28;20550;-68
2021/08/10 02:13:17;;;;;;;4.30;2.42;;;;;;;18.65;78.49;99944.38;5054745;28;20055;-68
2021/08/10 02:15:50;;;;;;;3.22;1.88;;;;;;;18.68;78.70;99939.13;5053455;28;20124;-68
2021/08/10 02:18:22;;;;;;;3.42;1.88;;;;;;;18.70;77.97;99939.94;5053684;28;20045;-68
2021/08/10 02:21:05;;;;;;;3.90;2.00;;;;;;;18.70;77.67;99934.75;5053598;28;20041;-68
2021/08/10 02:23:38;;;;;;;2.80;1.70;;;;;;;18.71;77.62;99933.03;5053344;28;20499;-69
2021/08/10 02:26:10;;;;;;;4.57;2.33;;;;;;;18.72;77.52;99939.88;5053266;28;20128;-69
2021/08/10 02:28:41;;;;;;;;;;;;;;;18.73;77.63;99936.41;5053569;28;20037;-68
2021/08/10 02:31:14;;;;;;;4.78;2.10;;;;;;;18.74;77.59;99948.41;5053137;28;19920;-69
2021/08/10 02:33:48;;;;;;;8.57;2.25;;;;;;;18.74;77.47;99949.28;5052546;28;20407;-68
2021/08/10 02:36:21;;;;;;;5.28;2.28;;;;;;;18.74;77.70;99945.84;5053363;28;20067;-68
2021/08/10 02:38:50;;;;;;;4.35;2.20;;;;;;;18.76;77.71;99935.47;5052971;28;20501;-68
2021/08/10 02:41:22;;;;;;;6.38;2.30;;;;;;;18.74;77.58;99938.06;5053009;28;20156;-68
2021/08/10 02:44:00;;;;;;;3.28;2.10;;;;;;;18.58;77.51;99937.69;5053037;28;20528;-68
2021/08/10 02:46:31;;;;;;;4.22;1.80;;;;;;;18.48;77.89;99936.25;5053184;28;20075;-68
2021/08/10 02:49:03;;;;;;;4.80;1.80;;;;;;;18.41;78.56;99937.28;5052894;28;20103;-69
2021/08/10 02:51:33;;;;;;;4.35;2.22;;;;;;;18.39;78.46;99941.66;5052659;28;20037;-68
2021/08/10 02:54:02;;;;;;;4.30;2.30;;;;;;;18.35;78.78;99945.25;5052641;28;20098;-68
2021/08/10 02:56:36;;;;;;;3.55;1.95;;;;;;;18.39;79.31;99941.66;5052655;28;20068;-68
2021/08/10 02:59:11;;;;;;;4.28;2.08;;;;;;;18.53;79.11;99928.38;5054100;28;20049;-69
2021/08/10 03:01:46;;;;;;;4.35;2.78;;;;;;;18.61;78.85;99911.75;5054408;28;20091;-69
2021/08/10 03:04:20;;;;;;;3.55;2.45;;;;;;;18.54;78.78;99915.41;5052532;28;20052;-69
2021/08/10 03:06:51;;;;;;;6.03;2.13;;;;;;;18.38;78.80;99916.69;5052531;28;20049;-68
2021/08/10 03:09:21;;;;;;;4.05;2.38;;;;;;;18.22;78.96;99923.19;5055742;28;20056;-69
2021/08/10 03:11:54;;;;;;;3.70;2.35;;;;;;;17.98;79.52;99911.81;5075763;28;20040;-68
2021/08/10 03:14:25;;;;;;;4.90;2.45;;;;;;;18.07;80.24;99908.13;5075824;28;20512;-68
2021/08/10 03:16:56;;;;;;;5.80;2.50;;;;;;;17.99;80.15;99910.94;5075904;28;20394;-68
2021/08/10 03:19:29;;;;;;;6.20;2.95;;;;;;;18.06;80.47;99907.28;5075850;28;20036;-68
2021/08/10 03:22:00;;;;;;;4.00;2.50;;;;;;;18.20;80.56;99904.31;5076041;28;20089;-68
2021/08/10 03:24:30;;;;;;;5.00;2.97;;;;;;;18.17;80.42;99912.13;5075644;28;20048;-68
2021/08/10 03:27:01;;;;;;;;;;;;;;;18.02;80.65;99910.81;5094394;28;20115;-68
2021/08/10 03:29:30;;;;;;;4.82;2.50;;;;;;;18.06;80.82;99902.13;5094298;28;19920;-68
2021/08/10 03:31:59;;;;;;;5.45;2.50;;;;;;;18.19;80.99;99905.19;5075590;28;20032;-68
2021/08/10 03:34:32;;;;;;;4.05;2.30;;;;;;;18.28;80.67;99902.38;5075746;28;20044;-69
2021/08/10 03:37:04;;;;;;;6.22;2.85;;;;;;;18.28;80.56;99902.38;5075593;28;20048;-68
2021/08/10 03:39:36;;;;;;;5.22;2.80;;;;;;;18.27;80.44;99900.66;5075879;28;20047;-68
2021/08/10 03:42:05;;;;;;;;;;;;;;;18.25;80.43;99902.44;5094270;28;20165;-68
2021/08/10 03:44:36;;;;;;;7.22;2.67;;;;;;;18.27;80.50;99905.84;5096644;28;19924;-68
2021/08/10 03:47:06;;;;;;;4.25;2.47;;;;;;;18.33;80.56;99912.56;5097928;28;20068;-68
2021/08/10 03:49:38;;;;;;;5.50;2.30;;;;;;;18.33;80.39;99915.97;5079583;28;20035;-68
2021/08/10 03:52:08;;;;;;;4.93;2.53;;;;;;;18.36;80.15;99905.56;5097807;28;20040;-68
2021/08/10 03:54:38;;;;;;;4.95;2.22;;;;;;;18.39;79.96;99908.06;5079380;28;20051;-68
2021/08/10 03:57:11;;;;;;;4.78;2.47;;;;;;;18.40;80.00;99906.34;5079436;28;20070;-69
2021/08/10 03:59:42;;;;;;;4.00;2.50;;;;;;;18.41;79.76;99898.53;5079625;28;20051;-68
2021/08/10 04:02:13;;;;;;;4.68;2.65;;;;;;;18.37;79.71;99898.66;5097698;28;20399;-68
2021/08/10 04:04:50;;;;;;;4.47;2.78;;;;;;;18.32;79.82;99909.13;5079170;28;20052;-69
2021/08/10 04:07:20;;;;;;;4.32;2.30;;;;;;;18.34;79.93;99901.31;5079097;28;20083;-68
2021/08/10 04:09:51;;;;;;;5.90;2.88;;;;;;;18.49;79.89;99911.25;5070176;28;20063;-68
2021/08/10 04:12:22;;;;;;;3.70;2.30;;;;;;;18.58;79.61;99900.66;5056442;28;20033;-69
2021/08/10 04:14:52;;;;;;;;;;;;;;;18.58;79.65;99898.91;5039382;28;20053;-68
2021/08/10 04:17:26;;;;;;;4.75;2.15;;;;;;;18.64;79.54;99901.31;5056028;28;20019;-68
2021/08/10 04:19:59;;;;;;;4.68;2.38;;;;;;;18.74;79.24;99894.97;5055665;28;20056;-68
2021/08/10 04:22:28;;;;;;;4.28;2.60;;;;;;;18.83;78.98;99900.75;5055887;28;20057;-68
2021/08/10 04:25:00;;;;;;;7.57;2.20;;;;;;;18.89;78.71;99906.59;5055762;28;20562;-68
2021/08/10 04:27:30;;;;;;;4.57;2.30;;;;;;;18.94;78.43;99906.44;5055453;28;20041;-69
2021/08/10 04:30:02;;;;;;;4.93;2.20;;;;;;;18.93;78.39;99904.75;5055390;28;20127;-68
2021/08/10 04:32:32;;;;;;;4.53;2.45;;;;;;;18.88;78.34;99909.22;5055559;28;20506;-68
2021/08/10 04:35:07;;;;;;;6.90;2.92;;;;;;;18.92;78.46;99901.31;5055407;28;20132;-68
2021/08/10 04:37:39;;;;;;;8.20;2.50;;;;;;;18.91;78.55;99898.81;5055278;28;20045;-69
2021/08/10 04:40:09;;;;;;;5.45;2.33;;;;;;;18.92;78.29;99900.47;5055222;28;20048;-68
2021/08/10 04:43:05;;;;;;;4.65;2.42;;;;;;;18.94;78.21;99898.69;5024969;28;20041;-68
2021/08/10 04:45:34;;;;;;;3.55;2.00;;;;;;;18.95;78.37;99905.56;5055291;28;20056;-68
2021/08/10 04:48:03;;;;;;;5.90;2.30;;;;;;;19.04;78.21;99915.63;5055247;28;20052;-68
2021/08/10 04:50:36;;;;;;;5.35;2.20;;;;;;;19.08;78.05;99923.22;5055582;28;20537;-68
2021/08/10 04:53:08;;;;;;;5.55;2.67;;;;;;;19.10;78.04;99920.63;5055170;28;20037;-68
2021/08/10 04:55:39;;;;;;;4.20;2.30;;;;;;;19.32;78.07;99917.28;5054389;28;20041;-68
2021/08/10 04:58:08;;;;;;;4.35;2.17;;;;;;;19.57;77.66;99922.53;5055000;28;20116;-68
2021/08/10 05:00:38;;;;;;;6.40;2.60;;;;;;;19.76;77.20;99922.75;5054813;28;20053;-68
2021/08/10 05:03:07;;;;;;;6.55;2.47;;;;;;;19.97;76.72;99927.19;5054860;28;20076;-68
2021/08/10 05:05:40;;;;;;;4.43;2.95;;;;;;;20.09;76.28;99926.75;5054711;28;20067;-68
2021/08/10 05:08:10;;;;;;;5.75;2.70;;;;;;;20.24;75.93;99930.59;5055952;28;20049;-68
2021/08/10 05:10:39;;;;;;;;;;;;;;;20.44;75.41;99930.72;5054852;28;20051;-68
2021/08/10 05:13:08;;;;;;;5.30;2.10;;;;;;;20.55;74.67;99931.16;5055659;28;19927;-68
2021/08/10 05:15:37;;;;;;;;;;;;;;;20.58;74.12;99931.03;5055247;28;20382;-68
2021/08/10 05:18:07;;;;;;;8.33;2.50;;;;;;;20.55;74.02;99931.16;5055662;28;19960;-68
2021/08/10 05:20:36;;;;;;;4.20;2.10;;;;;;;20.73;73.19;99938.25;5055557;28;20699;-68
2021/08/10 05:23:07;;;;;;;6.07;2.40;;;;;;;20.86;73.07;99930.84;5054476;28;20036;-68
2021/08/10 05:25:38;;;;;;;5.28;2.10;;;;;;;20.95;72.59;99930.47;5054733;28;20048;-68
2021/08/10 05:28:10;;;;;;;4.50;2.40;;;;;;;21.06;72.17;99938.72;5054484;28;20487;-68
2021/08/10 05:30:40;;;;;;;5.88;2.45;;;;;;;21.02;72.22;99948.34;5055942;28;20060;-68
2021/08/10 05:33:10;;;;;;;5.30;2.00;;;;;;;21.19;71.77;99951.16;5054233;28;20037;-68
2021/08/10 05:35:40;;;;;;;5.30;3.20;;;;;;;21.38;71.51;99952.13;5054098;28;20055;-68
2021/08/10 05:38:10;;;;;;;5.82;2.75;;;;;;;21.42;71.33;99941.59;5054016;28;20037;-69
2021/08/10 05:40:43;;;;;;;7.78;2.45;;;;;;;21.50;70.95;99944.75;5054069;28;20090;-69
2021/08/10 05:43:12;;;;;;;4.15;2.50;;;;;;;21.65;70.87;99957.09;5054524;28;20087;-69
2021/08/10 05:45:42;;;;;;;6.68;2.60;;;;;;;21.66;70.21;99951.00;5055110;28;20089;-69
2021/08/10 05:48:15;;;;;;;3.75;2.28;;;;;;;21.65;70.26;99950.16;5054216;28;20045;-69
2021/08/10 05:50:47;;;;;;;7.13;2.60;;;;;;;21.82;70.22;99947.69;5054177;28;20051;-69
2021/08/10 05:53:21;;;;;;;4.70;2.50;;;;;;;22.00;69.80;99951.31;5053838;28;20041;-69
2021/08/10 05:55:50;;;;;;;5.13;2.60;;;;;;;22.05;69.41;99949.34;5055304;28;20044;-69
2021/08/10 05:58:21;;;;;;;5.50;2.42;;;;;;;22.07;69.25;99941.47;5054914;28;20045;-69
2021/08/10 06:00:53;;;;;;;7.55;2.30;;;;;;;22.24;69.29;99945.03;5053707;28;20052;-69
2021/08/10 06:03:22;;;;;;;8.73;2.42;;;;;;;22.32;68.59;99948.13;5055153;28;20048;-69
2021/08/10 06:05:51;;;;;;;6.55;2.90;;;;;;;22.44;68.37;99939.78;5053855;28;20037;-69
2021/08/10 06:08:31;;;;;;;6.32;2.35;;;;;;;22.47;68.02;99942.25;5053815;28;20072;-69
2021/08/10 06:11:02;;;;;;;5.65;2.20;;;;;;;22.57;67.58;99953.94;5053594;28;20132;-69
2021/08/10 06:13:32;;;;;;;4.13;2.45;;;;;;;22.68;67.17;99954.31;5053320;28;20061;-69
2021/08/10 06:16:01;;;;;;;5.53;2.92;;;;;;;22.80;67.01;99954.66;5054854;28;20049;-69
2021/08/10 06:18:30;;;;;;;4.65;2.53;;;;;;;22.72;67.10;99956.78;5054307;28;20044;-69
2021/08/10 06:21:04;;;;;;;6.10;2.70;;;;;;;22.79;67.36;99958.19;5053320;28;20503;-69
2021/08/10 06:23:35;;;;;;;4.50;2.80;;;;;;;22.70;67.17;99948.22;5054287;28;20048;-69
2021/08/10 06:26:05;;;;;;;4.60;2.05;;;;;;;22.84;66.92;99951.00;5036496;28;20095;-69
2021/08/10 06:28:34;;;;;;;6.55;2.40;;;;;;;22.97;66.66;99949.50;5054378;28;20090;-69
2021/08/10 06:31:04;;;;;;;3.75;2.10;;;;;;;23.00;66.88;99951.97;5053430;28;20045;-69
2021/08/10 06:33:34;;;;;;;4.50;2.60;;;;;;;23.17;66.49;99949.41;5052924;28;20103;-69
2021/08/10 06:36:04;;;;;;;5.90;2.60;;;;;;;22.88;66.75;99950.78;5053014;28;20495;-69
2021/08/10 06:38:35;;;;;;;4.68;2.60;;;;;;;23.15;66.82;99946.06;5052965;28;20060;-69
2021/08/10 06:41:05;;;;;;;7.53;3.20;;;;;;;23.30;66.42;99956.56;5052952;28;20041;-69
2021/08/10 06:43:34;;;;;;;5.20;2.55;;;;;;;23.17;66.37;99949.41;5054528;28;20106;-69
2021/08/10 06:46:30;;;;;;;4.35;2.75;;;;;;;23.33;66.60;99947.75;5048275;28;20052;-69
2021/08/10 06:49:06;;;;;;;5.45;2.85;;;;;;;23.57;66.13;99953.56;5053298;28;20067;-69
2021/08/10 06:51:36;;;;;;;4.03;2.58;;;;;;;23.74;65.25;99950.97;5036196;28;20135;-69
2021/08/10 06:54:09;;;;;;;7.78;2.30;;;;;;;23.91;64.97;99948.34;5052636;28;20087;-69
2021/08/10 06:56:46;;;;;;;7.78;2.85;;;;;;;23.88;64.65;99949.34;5052658;28;20048;-69
2021/08/10 06:59:19;;;;;;;5.15;2.70;;;;;;;23.92;64.62;99942.22;5052831;28;20140;-69
2021/08/10 07:01:49;;;;;;;6.75;2.70;;;;;;;23.95;64.45;99940.28;5054150;28;20037;-69
2021/08/10 07:04:21;;;;;;;5.32;3.40;;;;;;;24.21;63.92;99938.16;5052552;28;20057;-69
2021/08/10 07:06:50;;;;;;;4.75;2.50;;;;;;;24.37;63.72;99939.00;5053744;28;20040;-69
2021/08/10 07:09:22;;;;;;;4.60;2.65;;;;;;;24.46;62.88;99935.91;5056605;28;20048;-70
2021/08/10 07:11:52;;;;;;;7.03;2.35;;;;;;;24.61;62.73;99940.31;5076453;28;20047;-69
2021/08/10 07:14:21;;;;;;;5.68;2.30;;;;;;;24.43;62.80;99941.28;5094174;28;20378;-69
2021/08/10 07:16:50;;;;;;;;;;;;;;;24.43;63.29;99946.50;5076498;28;20051;-69
2021/08/10 07:19:19;;;;;;;9.48;2.40;;;;;;;24.65;63.13;99939.22;5074868;28;19971;-69
2021/08/10 07:21:49;;;;;;;7.10;2.60;;;;;;;24.91;61.98;99941.28;5075751;28;20442;-69
2021/08/10 07:24:24;;;;;;;5.13;2.15;;;;;;;25.02;61.28;99936.31;5075539;28;20044;-70
2021/08/10 07:26:54;;;;;;;5.65;2.50;;;;;;;25.06;61.22;99942.19;5075486;28;20068;-69
2021/08/10 07:29:31;;;;;;;4.05;2.45;;;;;;;25.15;61.33;99941.69;5075427;28;20122;-69
2021/08/10 07:32:03;;;;;;;5.43;2.40;;;;;;;25.44;61.00;99932.19;5093784;28;20090;-69
2021/08/10 07:34:46;;;;;;;3.47;2.10;;;;;;;25.60;60.02;99938.25;5077541;28;20052;-69
2021/08/10 07:37:22;;;;;;;4.70;2.35;;;;;;;25.68;59.21;99930.78;5075489;28;20048;-69
2021/08/10 07:39:52;;;;;;;3.72;2.22;;;;;;;25.70;59.18;99928.91;5075739;28;20036;-69
2021/08/10 07:42:24;;;;;;;5.43;2.60;;;;;;;25.76;58.74;99925.97;5075173;28;20105;-69
2021/08/10 07:44:56;;;;;;;4.43;2.30;;;;;;;25.87;59.10;99926.16;5075331;28;20111;-69
2021/08/10 07:47:25;;;;;;;5.85;2.40;;;;;;;25.91;58.00;99927.69;5093440;28;20055;-69
2021/08/10 07:49:54;;;;;;;3.70;2.10;;;;;;;26.00;58.14;99919.28;5075382;28;20393;-69
2021/08/10 07:52:24;;;;;;;3.63;2.03;;;;;;;25.72;58.27;99927.09;5075753;28;20048;-69
2021/08/10 07:54:55;;;;;;;4.97;2.22;;;;;;;25.87;57.99;99926.16;5093334;28;20052;-69
2021/08/10 07:57:25;;;;;;;7.47;2.53;;;;;;;26.03;57.62;99921.72;5093650;28;20498;-69
2021/08/10 08:00:03;;;;;;;3.78;2.25;;;;;;;26.27;57.09;99917.63;5093341;28;20044;-69
2021/08/10 08:02:41;;;;;;;3.85;2.00;;;;;;;26.40;56.19;99912.47;5093224;28;20490;-69
2021/08/10 08:05:12;;;;;;;3.70;2.25;;;;;;;26.49;56.03;99912.75;5075038;28;20048;-69
2021/08/10 08:07:40;;;;;;;3.80;2.00;;;;;;;26.65;55.98;99914.41;5093336;28;20089;-69
2021/08/10 08:10:13;;;;;;;3.38;2.00;;;;;;;26.70;54.97;99912.34;5075003;28;20052;-69
2021/08/10 08:12:45;;;;;;;3.55;2.03;;;;;;;26.79;53.97;99911.78;5075290;28;20040;-69
2021/08/10 08:15:14;;;;;;;;;;;;;;;26.74;53.95;99908.59;5075459;28;20044;-69
2021/08/10 08:17:43;;;;;;;4.63;2.05;;;;;;;26.83;53.92;99915.88;5075117;28;19986;-69
2021/08/10 08:20:19;;;;;;;3.38;1.90;;;;;;;26.80;54.18;99908.25;5075070;28;20048;-69
2021/08/10 08:22:50;;;;;;;3.90;2.13;;;;;;;26.96;54.36;99911.56;5074903;28;20398;-69
2021/08/10 08:25:21;;;;;;;5.32;2.08;;;;;;;27.03;53.39;99912.84;5074986;28;20055;-69
2021/08/10 08:27:51;;;;;;;5.15;2.05;;;;;;;27.24;53.11;99906.19;5075471;28;20433;-69
2021/08/10 08:30:21;;;;;;;4.15;2.00;;;;;;;27.40;52.52;99914.78;5075756;28;20090;-69
2021/08/10 08:32:50;;;;;;;5.32;2.10;;;;;;;27.46;52.41;99900.41;5096605;28;20076;-69
2021/08/10 08:35:21;;;;;;;3.63;2.20;;;;;;;27.61;52.31;99902.88;5078152;28;20055;-69
2021/08/10 08:37:50;;;;;;;3.92;1.92;;;;;;;27.69;52.31;99900.53;5078495;28;20032;-69
2021/08/10 08:40:19;;;;;;;4.22;1.85;;;;;;;27.92;52.38;99902.47;5078738;28;20058;-69
2021/08/10 08:42:50;;;;;;;4.13;1.98;;;;;;;27.67;50.63;99902.44;5078524;28;20533;-69
2021/08/10 08:45:20;;;;;;;3.70;1.83;;;;;;;27.82;50.79;99896.16;5096420;28;20051;-69
2021/08/10 08:47:51;;;;;;;4.47;2.08;;;;;;;28.07;50.40;99897.97;5096449;28;20097;-69
2021/08/10 08:50:23;;;;;;;4.38;1.80;;;;;;;28.27;49.69;99893.94;5078702;28;20044;-69
2021/08/10 08:52:54;;;;;;;3.58;1.88;;;;;;;28.06;47.32;99898.06;5078595;28;20070;-69
2021/08/10 08:55:24;;;;;;;3.40;1.88;;;;;;;28.16;47.76;99893.88;5078209;28;20563;-69
2021/08/10 08:57:54;;;;;;;3.88;1.83;;;;;;;28.24;47.46;99886.31;5078349;28;20043;-69
2021/08/10 09:00:24;;;;;;;5.35;1.70;;;;;;;28.35;46.66;99891.63;5078302;28;20036;-69
2021/08/10 09:02:54;;;;;;;3.92;1.63;;;;;;;28.42;46.71;99901.59;5078134;28;20047;-69
2021/08/10 09:05:24;;;;;;;4.20;1.50;;;;;;;28.27;45.46;99893.94;5078143;28;20089;-69
2021/08/10 09:07:57;;;;;;;2.92;1.70;;;;;;;28.26;45.46;99892.28;5096067;28;20044;-69
2021/08/10 09:10:29;;;;;;;2.75;1.52;;;;;;;28.10;45.41;99895.13;5078183;28;20053;-69
2021/08/10 09:13:03;;;;;;;3.40;1.45;;;;;;;28.27;45.47;99891.31;5095975;28;20118;-69
2021/08/10 09:15:36;;;;;;;2.85;1.40;;;;;;;28.60;45.82;99894.25;5077971;28;20040;-69
2021/08/10 09:18:12;;;;;;;3.42;1.60;;;;;;;28.85;45.30;99894.16;5077891;28;20048;-69
2021/08/10 09:21:03;;;;;;;2.67;1.42;;;;;;;28.80;45.20;99885.75;5077782;28;20055;-69
2021/08/10 09:23:42;;;;;;;3.45;1.55;;;;;;;28.78;44.66;99886.81;5077668;28;20044;-69
2021/08/10 09:26:13;;;;;;;4.32;1.65;;;;;;;28.99;44.00;99890.50;5077798;28;20551;-69
2021/08/10 09:28:44;;;;;;;3.97;2.50;;;;;;;29.08;44.07;99874.88;5095454;28;20134;-69
2021/08/10 09:31:36;;;;;;;6.53;2.25;;;;;;;29.25;45.07;99881.56;5077884;28;20093;-69
2021/08/10 09:34:09;;;;;;;4.65;2.35;;;;;;;29.43;44.79;99874.09;5061128;28;20464;-70
2021/08/10 09:36:39;;;;;;;4.63;2.50;;;;;;;29.60;44.67;99869.25;5077672;28;20394;-69
2021/08/10 09:39:09;;;;;;;5.47;2.50;;;;;;;29.46;44.42;99869.47;5077522;28;20127;-69
2021/08/10 09:41:39;;;;;;;5.35;2.80;;;;;;;29.53;43.82;99867.19;5077013;28;20047;-69
2021/08/10 09:44:19;;;;;;;3.63;2.20;;;;;;;29.66;45.18;99865.28;5077319;28;20094;-69
2021/08/10 09:46:51;;;;;;;5.85;2.95;;;;;;;29.71;44.64;99871.03;5077373;28;20145;-69
2021/08/10 09:49:21;;;;;;;3.92;2.08;;;;;;;29.84;44.69;99858.66;5077487;28;20048;-69
2021/08/10 09:51:52;;;;;;;5.20;2.13;;;;;;;29.94;44.15;99853.53;5095844;28;20515;-69
2021/08/10 09:54:29;;;;;;;3.30;2.20;;;;;;;30.09;44.34;99861.03;5077028;28;20044;-69
2021/08/10 09:57:01;;;;;;;3.67;1.90;;;;;;;29.86;44.17;99862.00;5077238;28;20048;-70
2021/08/10 09:59:43;;;;;;;2.83;1.70;;;;;;;29.96;43.07;99862.97;5094934;28;20044;-69
2021/08/10 10:02:19;;;;;;;4.32;2.55;;;;;;;29.87;42.86;99863.69;5076662;28;20067;-69
2021/08/10 10:04:53;;;;;;;5.22;2.03;;;;;;;30.00;42.84;99859.13;5077109;28;20040;-69
2021/08/10 10:07:23;;;;;;;8.13;2.72;;;;;;;30.09;42.30;99863.69;5076742;28;20067;-69
2021/08/10 10:10:18;;;;;;;3.13;1.95;;;;;;;30.26;43.44;99860.56;5090359;28;20043;-69
2021/08/10 10:12:51;;;;;;;3.40;1.90;;;;;;;30.39;42.91;99850.78;5094573;28;20037;-69
2021/08/10 10:15:21;;;;;;;3.83;2.05;;;;;;;30.18;42.68;99851.59;5093686;28;20468;-71
2021/08/10 10:17:50;;;;;;;4.30;2.20;;;;;;;29.77;43.29;99858.31;5091637;28;20063;-69
2021/08/10 10:20:20;;;;;;;5.25;2.10;;;;;;;29.99;42.77;99852.22;5093127;28;20052;-69
2021/08/10 10:22:50;;;;;;;3.28;1.98;;;;;;;30.12;43.33;99847.66;5092851;28;20040;-68
2021/08/10 10:25:25;;;;;;;3.78;1.88;;;;;;;30.00;43.01;99853.03;5090225;28;20379;-69
2021/08/10 10:27:55;;;;;;;2.90;1.77;;;;;;;30.16;42.83;99859.59;5091633;28;20040;-69
2021/08/10 10:30:26;;;;;;;3.10;1.80;;;;;;;30.35;42.21;99848.50;5059736;28;20044;-69
2021/08/10 10:32:56;;;;;;;5.90;2.50;;;;;;;30.50;40.82;99848.09;5094452;28;20036;-69
2021/08/10 10:35:25;;;;;;;4.00;1.90;;;;;;;30.48;40.19;99850.03;5094158;28;20048;-70
2021/08/10 10:37:55;;;;;;;4.05;1.75;;;;;;;30.67;40.83;99843.25;5094555;28;20063;-69
2021/08/10 10:40:25;;;;;;;5.53;3.17;;;;;;;31.03;40.88;99842.94;5094703;28;20051;-69
2021/08/10 10:42:56;;;;;;;5.40;1.88;;;;;;;31.04;39.08;99837.53;5094491;28;20101;-69
2021/08/10 10:45:35;;;;;;;4.30;1.95;;;;;;;31.00;39.06;99844.00;5094257;28;20064;-69
2021/08/10 10:48:30;;;;;;;3.75;1.80;;;;;;;31.28;38.64;99839.94;5094464;28;20074;-69
2021/08/10 10:51:03;;;;;;;3.00;1.90;;;;;;;31.39;39.10;99831.94;5094582;28;20115;-69
2021/08/10 10:53:32;;;;;;;2.88;1.73;;;;;;;31.52;38.44;99827.34;5093607;28;20036;-69
2021/08/10 10:56:02;;;;;;;3.60;2.00;;;;;;;30.98;37.88;99827.50;5094284;28;20044;-69
2021/08/10 10:58:33;;;;;;;4.45;1.70;;;;;;;30.61;37.73;99823.53;5094009;28;20093;-69
2021/08/10 11:01:19;;;;;;;3.22;1.98;;;;;;;30.76;37.92;99808.28;5076229;28;20036;-69
2021/08/10 11:04:10;;;;;;;3.15;1.80;;;;;;;31.05;38.02;99817.28;5094183;28;20489;-69
2021/08/10 11:06:43;;;;;;;3.22;1.83;;;;;;;31.22;37.77;99819.34;5094076;28;20044;-69
2021/08/10 11:09:34;;;;;;;4.40;2.15;;;;;;;31.21;37.34;99825.59;5093960;28;20051;-70
2021/08/10 11:12:04;;;;;;;3.95;1.90;;;;;;;31.48;36.82;99828.56;5075817;28;20075;-69
2021/08/10 11:14:56;;;;;;;3.20;1.92;;;;;;;31.41;36.30;99819.47;5075971;28;20052;-69
2021/08/10 11:17:27;;;;;;;5.55;2.22;;;;;;;31.64;36.87;99815.75;5093838;28;20044;-69
2021/08/10 11:19:56;;;;;;;3.00;1.80;;;;;;;31.69;36.80;99808.28;5093642;28;20490;-69
2021/08/10 11:22:26;;;;;;;;;;;;;;;31.88;36.32;99811.94;5094063;28;20032;-70
2021/08/10 11:25:00;;;;;;;3.53;1.90;;;;;;;31.96;36.15;99809.50;5094023;28;19920;-70
2021/08/10 11:27:40;;;;;;;5.00;1.90;;;;;;;32.15;35.57;99804.31;5093880;28;20089;-69
2021/08/10 11:30:11;;;;;;;4.82;2.30;;;;;;;32.15;35.05;99804.31;5093633;28;20048;-69
2021/08/10 11:32:47;;;;;;;3.40;2.00;;;;;;;32.25;34.68;99794.59;5093709;28;20074;-70
2021/08/10 11:35:32;;;;;;;3.70;1.90;;;;;;;32.43;35.06;99803.53;5075238;28;20055;-69
2021/08/10 11:38:10;;;;;;;4.53;1.85;;;;;;;32.37;34.61;99798.81;5093517;28;20119;-69
2021/08/10 11:40:54;;;;;;;3.92;2.17;;;;;;;32.38;34.48;99795.16;5093570;28;20048;-69
2021/08/10 11:43:24;;;;;;;3.90;1.90;;;;;;;32.32;35.14;99791.25;5093578;28;20036;-69
2021/08/10 11:45:53;;;;;;;4.03;2.20;;;;;;;32.24;34.90;99790.28;5093411;28;20036;-69
2021/08/10 11:48:24;;;;;;;3.15;1.98;;;;;;;32.05;35.30;99783.16;5093334;28;20044;-69
2021/08/10 11:50:53;;;;;;;5.65;2.20;;;;;;;32.16;34.96;99777.75;5093400;28;20097;-69
2021/08/10 11:53:35;;;;;;;3.55;1.98;;;;;;;32.38;35.64;99774.03;5093325;28;20037;-70
2021/08/10 11:56:04;;;;;;;6.30;5.38;;;;;;;32.64;35.38;99774.34;5093275;28;20064;-70
2021/08/10 11:58:44;;;;;;;3.50;2.10;;;;;;;32.56;35.37;99769.78;5093127;28;20047;-69
2021/08/10 12:01:15;;;;;;;4.35;2.13;;;;;;;32.53;36.03;99764.75;5093006;28;20044;-70